Time;durP1;ratioP1;P1;durP2;ratioP2;P2;SDS_P1;SDS_P2;PMS_P1;PMS_P2;Temp;Humidity;BMP_temperature;BMP_pressure;BME280_temperature;BME280_humidity;BME280_pressure;Samples;Min_cycle;Max_cycle;Signal;HPM_P1;HPM_P2
2021/06/15 00:00:56;;;;;;;4.90;4.40;;;;;;;-139.48;100.00;61774.03;5093194;28;20047;-66
2021/06/15 00:03:40;;;;;;;6.93;4.82;;;;;;;-139.48;100.00;61774.03;5092914;28;20051;-66
2021/06/15 00:06:24;;;;;;;6.05;5.35;;;;;;;-139.48;100.00;61774.03;5093391;28;20165;-66
2021/06/15 00:09:08;;;;;;;8.05;5.30;;;;;;;-139.48;100.00;61774.03;5077363;28;20082;-66
2021/06/15 00:11:52;;;;;;;11.40;4.63;;;;;;;-139.48;100.00;61774.03;5077759;28;20528;-66
2021/06/15 00:14:39;;;;;;;6.65;5.03;;;;;;;-139.48;100.00;61774.03;5093036;28;20504;-66
2021/06/15 00:17:23;;;;;;;8.18;5.00;;;;;;;-139.48;100.00;61774.03;5077756;28;20134;-66
2021/06/15 00:20:08;;;;;;;5.75;4.85;;;;;;;-139.48;100.00;61774.03;5063523;28;20067;-66
2021/06/15 00:22:52;;;;;;;5.65;5.00;;;;;;;-139.48;100.00;61774.03;5077392;28;20104;-66
2021/06/15 00:25:36;;;;;;;6.30;5.47;;;;;;;-139.48;100.00;61774.03;5077348;28;20067;-66
2021/06/15 00:28:20;;;;;;;8.10;5.20;;;;;;;-139.48;100.00;61774.03;5078327;28;20078;-66
2021/06/15 00:31:04;;;;;;;6.55;4.95;;;;;;;-139.48;100.00;61774.03;5096482;28;20412;-66
2021/06/15 00:33:48;;;;;;;9.85;4.80;;;;;;;-139.48;100.00;61774.03;5080933;28;20117;-66
2021/06/15 00:36:32;;;;;;;6.07;5.00;;;;;;;-139.48;100.00;61774.03;5096215;28;20058;-66
2021/06/15 00:39:16;;;;;;;8.73;5.53;;;;;;;-139.48;100.00;61774.03;5081018;28;20124;-66
2021/06/15 00:42:00;;;;;;;8.15;5.38;;;;;;;-139.48;100.00;61774.03;5080991;28;20051;-66
2021/06/15 00:44:44;;;;;;;7.75;5.20;;;;;;;-139.48;100.00;61774.03;5096306;28;20067;-66
2021/06/15 00:47:28;;;;;;;7.53;5.32;;;;;;;-139.48;100.00;61774.03;5066734;28;20131;-66
2021/06/15 00:50:13;;;;;;;7.43;4.50;;;;;;;-139.48;100.00;61774.03;5080523;28;20101;-66
2021/06/15 00:52:57;;;;;;;7.78;5.07;;;;;;;-139.48;100.00;61774.03;5080647;28;20467;-66
2021/06/15 00:55:41;;;;;;;7.40;5.60;;;;;;;-139.48;100.00;61774.03;5066711;28;20050;-66
2021/06/15 00:58:25;;;;;;;7.38;5.47;;;;;;;-139.48;100.00;61774.03;5095798;28;20050;-66
2021/06/15 01:01:09;;;;;;;9.88;5.60;;;;;;;-139.48;100.00;61774.03;5095901;28;20043;-66
2021/06/15 01:03:53;;;;;;;8.48;5.35;;;;;;;-139.48;100.00;61774.03;5080357;28;20047;-66
2021/06/15 01:07:02;;;;;;;7.70;5.20;;;;;;;-139.48;100.00;61774.03;5066453;28;20047;-66
2021/06/15 01:10:00;;;;;;;9.52;5.47;;;;;;;-139.48;100.00;61774.03;5066018;28;20093;-66
2021/06/15 01:13:08;;;;;;;6.72;5.38;;;;;;;-139.48;100.00;61774.03;5066297;28;20047;-66
2021/06/15 01:16:11;;;;;;;6.95;5.00;;;;;;;-139.48;100.00;61774.03;5080107;28;20094;-66
2021/06/15 01:19:03;;;;;;;7.75;5.38;;;;;;;-139.48;100.00;61774.03;5095333;28;20086;-66
2021/06/15 01:22:04;;;;;;;7.25;5.38;;;;;;;-139.48;100.00;61774.03;5080312;28;20213;-66
2021/06/15 01:25:07;;;;;;;8.07;5.60;;;;;;;-139.48;100.00;61774.03;5080311;28;20408;-64
2021/06/15 01:27:57;;;;;;;7.45;5.68;;;;;;;-139.48;100.00;61774.03;5079812;28;20531;-66
2021/06/15 01:31:08;;;;;;;6.22;5.28;;;;;;;-139.48;100.00;61774.03;5079831;28;20127;-66
2021/06/15 01:34:00;;;;;;;6.70;4.90;;;;;;;-139.48;100.00;61774.03;5066061;28;20086;-66
2021/06/15 01:36:55;;;;;;;13.52;5.60;;;;;;;-139.48;100.00;61774.03;5065784;28;20404;-66
2021/06/15 01:39:49;;;;;;;9.18;5.93;;;;;;;-139.48;100.00;61774.03;5095106;28;20165;-66
2021/06/15 01:42:37;;;;;;;8.20;5.32;;;;;;;-139.48;100.00;61774.03;5095531;28;20492;-66
2021/06/15 01:45:30;;;;;;;9.45;5.47;;;;;;;-139.48;100.00;61774.03;5079627;28;20126;-65
2021/06/15 01:48:34;;;;;;;9.00;4.80;;;;;;;-139.48;100.00;61774.03;5065486;28;20473;-66
2021/06/15 01:51:21;;;;;;;7.22;5.55;;;;;;;-139.48;100.00;61774.03;5094768;28;20042;-66
2021/06/15 01:54:11;;;;;;;7.25;5.18;;;;;;;-139.48;100.00;61774.03;5065466;28;20065;-66
2021/06/15 01:56:56;;;;;;;6.35;5.15;;;;;;;-139.48;100.00;61774.03;5079692;28;20508;-66
2021/06/15 01:59:43;;;;;;;11.30;4.93;;;;;;;-139.48;100.00;61774.03;5079360;28;20039;-66
2021/06/15 02:02:28;;;;;;;7.72;5.40;;;;;;;-139.48;100.00;61774.03;5079351;28;20062;-65
2021/06/15 02:05:13;;;;;;;7.55;4.97;;;;;;;-139.48;100.00;61774.03;5065337;28;20516;-66
2021/06/15 02:08:02;;;;;;;9.65;5.47;;;;;;;-139.48;100.00;61774.03;5079279;28;20516;-66
2021/06/15 02:10:46;;;;;;;8.30;5.55;;;;;;;-139.48;100.00;61774.03;5078948;28;20051;-65
2021/06/15 02:13:31;;;;;;;7.28;4.88;;;;;;;-139.48;100.00;61774.03;5079004;28;20051;-66
2021/06/15 02:16:16;;;;;;;8.27;5.63;;;;;;;-139.48;100.00;61774.03;5079216;28;20097;-66
2021/06/15 02:19:00;;;;;;;10.07;5.30;;;;;;;-139.48;100.00;61774.03;5094175;28;20079;-66
2021/06/15 02:21:48;;;;;;;12.15;5.05;;;;;;;-139.48;100.00;61774.03;5079459;28;20101;-66
2021/06/15 02:24:37;;;;;;;8.25;5.13;;;;;;;-139.48;100.00;61774.03;5079089;28;20070;-66
2021/06/15 02:27:23;;;;;;;8.52;5.75;;;;;;;-139.48;100.00;61774.03;5078725;28;20051;-66
2021/06/15 02:30:08;;;;;;;8.40;5.30;;;;;;;-139.48;100.00;61774.03;5064544;28;20043;-66
2021/06/15 02:32:54;;;;;;;6.03;5.43;;;;;;;-139.48;100.00;61774.03;5094252;28;20090;-66
2021/06/15 02:35:43;;;;;;;9.05;5.70;;;;;;;-139.48;100.00;61774.03;5064593;28;20098;-66
2021/06/15 02:38:37;;;;;;;8.40;5.35;;;;;;;-139.48;100.00;61774.03;5064266;28;20409;-66
2021/06/15 02:41:22;;;;;;;7.43;5.68;;;;;;;-139.48;100.00;61774.03;5078876;28;20051;-66
2021/06/15 02:44:07;;;;;;;10.20;5.50;;;;;;;-139.48;100.00;61774.03;5078682;28;20113;-66
2021/06/15 02:46:54;;;;;;;7.65;5.50;;;;;;;-139.48;100.00;61774.03;5064497;28;20082;-66
2021/06/15 02:49:48;;;;;;;7.18;5.32;;;;;;;-139.48;100.00;61774.03;5064643;28;20415;-65
2021/06/15 02:52:43;;;;;;;7.38;5.43;;;;;;;-139.48;100.00;61774.03;5077873;28;20050;-66
2021/06/15 02:55:33;;;;;;;8.18;6.13;;;;;;;-139.48;100.00;61774.03;5093828;28;20161;-66
2021/06/15 02:58:18;;;;;;;8.27;5.50;;;;;;;-139.48;100.00;61774.03;5064563;28;20098;-66
2021/06/15 03:01:02;;;;;;;7.35;5.65;;;;;;;-139.48;100.00;61774.03;5078480;28;20109;-66
2021/06/15 03:03:46;;;;;;;9.98;6.20;;;;;;;-139.48;100.00;61774.03;5064336;28;20128;-66
2021/06/15 03:06:31;;;;;;;13.45;5.75;;;;;;;-139.48;100.00;61774.03;5093474;28;20110;-66
2021/06/15 03:09:15;;;;;;;8.15;5.05;;;;;;;-139.48;100.00;61774.03;5093285;28;20051;-66
2021/06/15 03:12:09;;;;;;;9.82;5.68;;;;;;;-139.48;100.00;61774.03;5093376;28;20054;-66
2021/06/15 03:14:59;;;;;;;8.40;6.13;;;;;;;-139.48;100.00;61774.03;5063938;28;20046;-66
2021/06/15 03:17:51;;;;;;;7.78;5.70;;;;;;;-139.48;100.00;61774.03;5078241;28;20046;-66
2021/06/15 03:20:35;;;;;;;8.05;5.40;;;;;;;-139.48;100.00;61774.03;5078302;28;20503;-66
2021/06/15 03:23:36;;;;;;;8.88;5.75;;;;;;;-139.48;100.00;61774.03;5064154;28;20051;-66
2021/06/15 03:26:24;;;;;;;8.20;5.45;;;;;;;-139.48;100.00;61774.03;5078312;28;20046;-66
2021/06/15 03:29:11;;;;;;;9.18;5.85;;;;;;;-139.48;100.00;61774.03;5093028;28;20087;-66
2021/06/15 03:31:59;;;;;;;9.27;5.80;;;;;;;-139.48;100.00;61774.03;5078257;28;20097;-66
2021/06/15 03:34:46;;;;;;;7.70;5.78;;;;;;;-139.48;100.00;61774.03;5078585;28;20055;-66
2021/06/15 03:37:30;;;;;;;8.70;5.85;;;;;;;-139.48;100.00;61774.03;5077863;28;20055;-66
2021/06/15 03:40:15;;;;;;;10.57;6.00;;;;;;;-139.48;100.00;61774.03;5064230;28;20518;-66
2021/06/15 03:42:59;;;;;;;6.00;5.35;;;;;;;-139.48;100.00;61774.03;5078108;28;20044;-66
2021/06/15 03:45:47;;;;;;;10.85;5.85;;;;;;;-139.48;100.00;61774.03;5078132;28;20043;-66
2021/06/15 03:48:32;;;;;;;7.72;6.07;;;;;;;-139.48;100.00;61774.03;5049722;28;20094;-66
2021/06/15 03:51:19;;;;;;;9.43;5.75;;;;;;;-139.48;100.00;61774.03;5078276;28;20097;-66
2021/06/15 03:54:08;;;;;;;9.82;6.30;;;;;;;-139.48;100.00;61774.03;5078233;28;20051;-66
2021/06/15 03:56:55;;;;;;;8.82;6.28;;;;;;;-139.48;100.00;61774.03;5078387;28;20050;-66
2021/06/15 03:59:41;;;;;;;11.00;6.68;;;;;;;-139.48;100.00;61774.03;5078100;28;20047;-67
2021/06/15 04:02:26;;;;;;;11.15;6.63;;;;;;;-139.48;100.00;61774.03;5077630;28;20504;-66
2021/06/15 04:05:12;;;;;;;9.00;5.68;;;;;;;-139.48;100.00;61774.03;5096694;28;20416;-66
2021/06/15 04:08:00;;;;;;;8.57;5.97;;;;;;;-139.48;100.00;61774.03;5081398;28;20507;-66
2021/06/15 04:10:46;;;;;;;9.25;6.07;;;;;;;-139.48;100.00;61774.03;5081381;28;20050;-66
2021/06/15 04:13:30;;;;;;;7.97;5.53;;;;;;;-139.48;100.00;61774.03;5081698;28;20101;-66
2021/06/15 04:16:15;;;;;;;6.43;5.53;;;;;;;-139.48;100.00;61774.03;5081341;28;20109;-66
2021/06/15 04:19:01;;;;;;;9.15;6.78;;;;;;;-139.48;100.00;61774.03;5081265;28;20047;-67
2021/06/15 04:21:46;;;;;;;10.15;6.50;;;;;;;-139.48;100.00;61774.03;5081506;28;20051;-66
2021/06/15 04:24:32;;;;;;;8.70;6.20;;;;;;;-139.48;100.00;61774.03;5081495;28;20520;-66
2021/06/15 04:27:20;;;;;;;12.15;6.90;;;;;;;-139.48;100.00;61774.03;5066898;28;20454;-66
2021/06/15 04:30:06;;;;;;;11.75;6.57;;;;;;;-139.48;100.00;61774.03;5081389;28;20047;-66
2021/06/15 04:32:52;;;;;;;12.02;6.85;;;;;;;-139.48;100.00;61774.03;5081289;28;20101;-66
2021/06/15 04:35:56;;;;;;;8.48;6.60;;;;;;;-139.48;100.00;61774.03;5096527;28;20097;-66
2021/06/15 04:38:54;;;;;;;14.17;7.63;;;;;;;-139.48;100.00;61774.03;5185012;22;20055;-71
2021/06/15 04:42:00;;;;;;;11.07;7.78;;;;;;;-139.48;100.00;61774.03;5096114;28;20268;-71
2021/06/15 04:44:45;;;;;;;11.52;7.88;;;;;;;-139.48;100.00;61774.03;5081046;28;20101;-71
2021/06/15 04:47:36;;;;;;;11.63;7.15;;;;;;;-139.48;100.00;61774.03;5081291;28;20067;-71
2021/06/15 04:50:25;;;;;;;13.18;7.82;;;;;;;-139.48;100.00;61774.03;5060822;28;20074;-71
2021/06/15 04:53:09;;;;;;;9.57;7.15;;;;;;;-139.48;100.00;61774.03;5060753;28;20060;-71
2021/06/15 04:55:54;;;;;;;10.88;7.00;;;;;;;-139.48;100.00;61774.03;5046671;28;20047;-71
2021/06/15 04:58:39;;;;;;;15.27;7.53;;;;;;;-139.48;100.00;61774.03;5075692;28;20067;-71
2021/06/15 05:01:23;;;;;;;13.50;6.85;;;;;;;-139.48;100.00;61774.03;5060560;28;20116;-72
2021/06/15 05:04:07;;;;;;;9.43;6.60;;;;;;;-139.48;100.00;61774.03;5060336;28;20493;-71
2021/06/15 05:06:52;;;;;;;9.63;5.82;;;;;;;-139.48;100.00;61774.03;5046704;28;20136;-71
2021/06/15 05:09:36;;;;;;;10.63;6.18;;;;;;;-139.48;100.00;61774.03;5060476;28;20090;-71
2021/06/15 05:12:21;;;;;;;13.77;6.50;;;;;;;-139.48;100.00;61774.03;5060098;28;20051;-71
2021/06/15 05:15:08;;;;;;;10.00;6.53;;;;;;;-139.48;100.00;61774.03;5045374;28;20101;-71
2021/06/15 05:17:54;;;;;;;11.88;6.82;;;;;;;-139.48;100.00;61774.03;5059969;28;20082;-67
2021/06/15 05:20:38;;;;;;;11.40;6.60;;;;;;;-139.48;100.00;61774.03;5075181;28;20055;-66
2021/06/15 05:23:34;;;;;;;13.27;6.30;;;;;;;-139.48;100.00;61774.03;5075169;28;20479;-66
2021/06/15 05:26:18;;;;;;;9.38;6.55;;;;;;;-139.48;100.00;61774.03;5060177;28;20086;-67
2021/06/15 05:29:02;;;;;;;11.52;7.10;;;;;;;-139.48;100.00;61774.03;5060232;28;20052;-67
2021/06/15 05:31:45;;;;;;;9.98;6.43;;;;;;;-139.48;100.00;61774.03;5060322;28;20051;-67
2021/06/15 05:34:29;;;;;;;15.80;7.15;;;;;;;-139.48;100.00;61774.03;5074963;28;20101;-64
2021/06/15 05:37:14;;;;;;;10.82;6.68;;;;;;;-139.48;100.00;61774.03;5045697;28;20043;-66
2021/06/15 05:39:58;;;;;;;9.02;6.88;;;;;;;-139.48;100.00;61774.03;5045254;28;20079;-66
2021/06/15 05:42:42;;;;;;;10.98;7.00;;;;;;;-139.48;100.00;61774.03;5045993;28;20043;-66
2021/06/15 05:45:26;;;;;;;11.77;6.78;;;;;;;-139.48;100.00;61774.03;5074906;28;20105;-72
2021/06/15 05:48:11;;;;;;;8.80;5.90;;;;;;;-139.48;100.00;61774.03;5059587;28;20043;-71
2021/06/15 05:50:54;;;;;;;;;;;;;;;-139.48;100.00;61774.03;5059884;28;20048;-72
2021/06/15 05:53:38;;;;;;;17.70;6.78;;;;;;;-139.48;100.00;61774.03;5059523;28;19923;-72
2021/06/15 05:56:22;;;;;;;8.68;5.78;;;;;;;-139.48;100.00;61774.03;5059737;28;20051;-72
2021/06/15 05:59:06;;;;;;;8.52;6.55;;;;;;;-139.48;100.00;61774.03;5045088;28;20054;-72
2021/06/15 06:01:50;;;;;;;7.20;5.78;;;;;;;-139.48;100.00;61774.03;5074458;28;20125;-70
2021/06/15 06:04:48;;;;;;;9.27;6.20;;;;;;;-139.48;100.00;61774.03;5059053;28;20044;-71
2021/06/15 06:10:36;;;;;;;14.10;6.30;;;;;;;-139.48;100.00;61774.03;5074023;28;20516;-72
2021/06/15 06:13:20;;;;;;;10.63;6.40;;;;;;;-139.48;100.00;61774.03;5074327;28;20078;-71
2021/06/15 06:16:08;;;;;;;11.38;6.55;;;;;;;-139.48;100.00;61774.03;5059400;28;20047;-71
2021/06/15 06:18:53;;;;;;;8.75;5.60;;;;;;;-139.48;100.00;61774.03;5045119;28;20048;-71
2021/06/15 06:21:37;;;;;;;9.77;5.32;;;;;;;-139.48;100.00;61774.03;5059047;28;20106;-72
2021/06/15 06:24:22;;;;;;;10.38;5.22;;;;;;;-139.48;100.00;61774.03;5042079;28;20048;-72
2021/06/15 06:27:07;;;;;;;9.63;5.40;;;;;;;-139.48;100.00;61774.03;5058131;28;20047;-72
2021/06/15 06:29:51;;;;;;;14.63;6.07;;;;;;;-139.48;100.00;61774.03;5044464;28;20046;-72
2021/06/15 06:32:36;;;;;;;9.48;5.38;;;;;;;-139.48;100.00;61774.03;5058803;28;20055;-72
2021/06/15 06:35:20;;;;;;;8.27;5.50;;;;;;;-139.48;100.00;61774.03;5058721;28;20044;-72
2021/06/15 06:38:04;;;;;;;11.25;5.85;;;;;;;-139.48;100.00;61774.03;5058536;28;20071;-71
2021/06/15 06:40:48;;;;;;;10.75;5.85;;;;;;;-139.48;100.00;61774.03;5073970;28;20178;-71
2021/06/15 06:43:32;;;;;;;12.73;5.18;;;;;;;-139.48;100.00;61774.03;5073744;28;20051;-71
2021/06/15 06:46:16;;;;;;;6.25;5.00;;;;;;;-139.48;100.00;61774.03;5073491;28;20449;-71
2021/06/15 06:49:00;;;;;;;8.02;5.22;;;;;;;-139.48;100.00;61774.03;5044688;28;20467;-72
2021/06/15 06:51:44;;;;;;;8.57;5.10;;;;;;;-139.48;100.00;61774.03;5058315;28;20211;-72
2021/06/15 06:54:28;;;;;;;6.68;4.78;;;;;;;-139.48;100.00;61774.03;5058511;28;20055;-72
2021/06/15 06:57:11;;;;;;;13.30;5.32;;;;;;;-139.48;100.00;61774.03;5058483;28;20047;-72
2021/06/15 06:59:55;;;;;;;8.10;5.35;;;;;;;-139.48;100.00;61774.03;5058009;28;20409;-71
2021/06/15 07:02:40;;;;;;;10.10;5.32;;;;;;;-139.48;100.00;61774.03;5044260;28;20463;-71
2021/06/15 07:05:24;;;;;;;14.73;5.10;;;;;;;-139.48;100.00;61774.03;5058052;28;20147;-72
2021/06/15 07:08:08;;;;;;;8.95;4.65;;;;;;;-139.48;100.00;61774.03;5058007;28;20055;-72
2021/06/15 07:10:52;;;;;;;11.30;5.38;;;;;;;-139.48;100.00;61774.03;5058577;28;20086;-71
2021/06/15 07:13:36;;;;;;;8.85;5.07;;;;;;;-139.48;100.00;61774.03;5058262;28;20098;-72
2021/06/15 07:16:20;;;;;;;9.77;5.53;;;;;;;-139.48;100.00;61774.03;5058118;28;20615;-71
2021/06/15 07:19:04;;;;;;;7.50;4.72;;;;;;;-139.48;100.00;61774.03;5043880;28;20128;-70
2021/06/15 07:21:48;;;;;;;12.63;5.38;;;;;;;-139.48;100.00;61774.03;5073526;28;20117;-71
2021/06/15 07:24:32;;;;;;;10.18;4.43;;;;;;;-139.48;100.00;61774.03;5043808;28;20189;-71
2021/06/15 07:27:16;;;;;;;9.13;4.18;;;;;;;-139.48;100.00;61774.03;5073267;28;20511;-72
2021/06/15 07:29:59;;;;;;;;;;;;;;;-139.48;100.00;61774.03;5058089;28;20055;-71
2021/06/15 07:32:43;;;;;;;11.83;4.60;;;;;;;-139.48;100.00;61774.03;5072958;28;19997;-71
2021/06/15 07:35:28;;;;;;;9.02;5.10;;;;;;;-139.48;100.00;61774.03;5073369;28;20055;-72
2021/06/15 07:38:12;;;;;;;17.13;5.40;;;;;;;-139.48;100.00;61774.03;5045801;28;20055;-72
2021/06/15 07:40:57;;;;;;;7.70;4.90;;;;;;;-139.48;100.00;61774.03;5061691;28;20047;-71
2021/06/15 07:43:41;;;;;;;9.25;5.47;;;;;;;-139.48;100.00;61774.03;5062008;28;20135;-72
2021/06/15 07:46:25;;;;;;;9.40;5.32;;;;;;;-139.48;100.00;61774.03;5061984;28;20123;-72
2021/06/15 07:49:09;;;;;;;9.18;5.90;;;;;;;-139.48;100.00;61774.03;5061857;28;20127;-72
2021/06/15 07:51:53;;;;;;;13.45;5.53;;;;;;;-139.48;100.00;61774.03;5061838;28;20051;-72
2021/06/15 07:54:38;;;;;;;11.52;5.47;;;;;;;-139.48;100.00;61774.03;5076908;28;20512;-70
2021/06/15 07:57:22;;;;;;;10.90;6.22;;;;;;;-139.48;100.00;61774.03;5076880;28;20554;-72
2021/06/15 08:00:07;;;;;;;9.32;6.30;;;;;;;-139.48;100.00;61774.03;5047533;28;20098;-70
2021/06/15 08:02:51;;;;;;;6.45;4.82;;;;;;;-139.48;100.00;61774.03;5061455;28;20063;-72
2021/06/15 08:05:35;;;;;;;10.88;5.43;;;;;;;-139.48;100.00;61774.03;5061766;28;20055;-71
2021/06/15 08:08:20;;;;;;;13.02;9.05;;;;;;;-139.48;100.00;61774.03;5061109;28;20148;-72
2021/06/15 08:11:04;;;;;;;12.93;6.80;;;;;;;-139.48;100.00;61774.03;5046916;28;20083;-71
2021/06/15 08:13:48;;;;;;;8.45;5.85;;;;;;;-139.48;100.00;61774.03;5076084;28;20079;-72
2021/06/15 08:16:32;;;;;;;;;;;;;;;-139.48;100.00;61774.03;5077049;28;20051;-72
2021/06/15 08:19:16;;;;;;;8.63;6.43;;;;;;;-139.48;100.00;61774.03;5060864;28;20339;-72
2021/06/15 08:22:00;;;;;;;10.88;6.32;;;;;;;-139.48;100.00;61774.03;5060962;28;20299;-72
2021/06/15 08:24:44;;;;;;;8.40;6.25;;;;;;;-139.48;100.00;61774.03;5061390;28;20400;-72
2021/06/15 08:27:28;;;;;;;;;;;;;;;-139.48;100.00;61774.03;5047668;28;20526;-72
2021/06/15 08:30:12;;;;;;;10.53;7.00;;;;;;;-139.48;100.00;61774.03;5061060;28;19963;-71
2021/06/15 08:32:57;;;;;;;17.73;6.55;;;;;;;-139.48;100.00;61774.03;5060973;28;20283;-72
2021/06/15 08:35:41;;;;;;;10.40;6.65;;;;;;;-139.48;100.00;61774.03;5061168;28;20409;-72
2021/06/15 08:38:25;;;;;;;;;;;;;;;-139.48;100.00;61774.03;5061351;28;20094;-72
2021/06/15 08:41:09;;;;;;;11.43;6.27;;;;;;;-139.48;100.00;61774.03;5046770;28;20387;-71
2021/06/15 08:43:53;;;;;;;10.52;6.50;;;;;;;-139.48;100.00;61774.03;5060552;28;20807;-71
2021/06/15 08:46:38;;;;;;;11.40;5.93;;;;;;;-139.48;100.00;61774.03;5046470;28;20055;-71
2021/06/15 08:49:23;;;;;;;12.57;6.63;;;;;;;-139.48;100.00;61774.03;5045451;28;20476;-72
2021/06/15 08:52:07;;;;;;;10.35;5.43;;;;;;;-139.48;100.00;61774.03;5075839;28;20046;-71
2021/06/15 08:54:52;;;;;;;14.00;5.60;;;;;;;-139.48;100.00;61774.03;5060360;28;20071;-72
2021/06/15 08:57:37;;;;;;;11.65;5.55;;;;;;;-139.48;100.00;61774.03;5060481;28;20087;-72
2021/06/15 09:00:22;;;;;;;21.80;5.90;;;;;;;-139.48;100.00;61774.03;5046303;28;20504;-71
2021/06/15 09:03:06;;;;;;;9.93;6.70;;;;;;;-139.48;100.00;61774.03;5075352;28;20052;-71
2021/06/15 09:05:50;;;;;;;;;;;;;;;-139.48;100.00;61774.03;5060846;28;20093;-72
2021/06/15 09:08:54;;;;;;;8.18;6.15;;;;;;;-139.48;100.00;61774.03;5060406;28;19919;-72
2021/06/15 09:11:53;;;;;;;9.15;6.25;;;;;;;-139.48;100.00;61774.03;5075646;28;20043;-70
2021/06/15 09:14:46;;;;;;;10.93;5.78;;;;;;;-139.48;100.00;61774.03;5046033;28;20113;-72
2021/06/15 09:17:30;;;;;;;10.63;5.72;;;;;;;-139.48;100.00;61774.03;5060041;28;20047;-71
2021/06/15 09:20:30;;;;;;;12.82;6.45;;;;;;;-139.48;100.00;61774.03;5074981;28;20052;-71
2021/06/15 09:23:17;;;;;;;15.27;5.65;;;;;;;-139.48;100.00;61774.03;5060622;28;20083;-71
2021/06/15 09:26:03;;;;;;;15.98;8.95;;;;;;;-139.48;100.00;61774.03;5060576;28;20520;-72
2021/06/15 09:28:50;;;;;;;32.00;6.93;;;;;;;-139.48;100.00;61774.03;5059802;28;20441;-72
2021/06/15 09:31:50;;;;;;;10.68;5.05;;;;;;;-139.48;100.00;61774.03;5060067;28;20040;-71
2021/06/15 09:34:34;;;;;;;9.30;5.82;;;;;;;-139.48;100.00;61774.03;5075339;28;20485;-72
2021/06/15 09:37:26;;;;;;;;;;;;;;;-139.48;100.00;61774.03;5045947;28;20047;-72
2021/06/15 09:40:20;;;;;;;14.13;5.30;;;;;;;-139.48;100.00;61774.03;5059167;28;19966;-71
2021/06/15 09:43:09;;;;;;;8.55;4.70;;;;;;;-139.48;100.00;61774.03;5045370;28;20127;-72
2021/06/15 09:45:53;;;;;;;7.20;4.85;;;;;;;-139.48;100.00;61774.03;5059832;28;20043;-72
2021/06/15 09:48:38;;;;;;;;;;;;;;;-139.48;100.00;61774.03;5059638;28;20051;-72
2021/06/15 09:51:24;;;;;;;9.00;4.85;;;;;;;-139.48;100.00;61774.03;5045225;28;19966;-72
2021/06/15 09:54:08;;;;;;;8.38;4.80;;;;;;;-139.48;100.00;61774.03;5059220;28;20050;-71
2021/06/15 09:56:56;;;;;;;5.30;4.68;;;;;;;-139.48;100.00;61774.03;5045741;28;20059;-72
2021/06/15 09:59:59;;;;;;;10.00;4.63;;;;;;;-139.48;100.00;61774.03;5058977;28;20048;-72
2021/06/15 10:02:58;;;;;;;7.32;4.57;;;;;;;-139.48;100.00;61774.03;5058841;28;20524;-72
2021/06/15 10:05:42;;;;;;;8.65;5.30;;;;;;;-139.48;100.00;61774.03;5059375;28;20047;-72
2021/06/15 10:08:44;;;;;;;;;;;;;;;-139.48;100.00;61774.03;5074511;28;20047;-72
2021/06/15 10:11:28;;;;;;;9.32;4.85;;;;;;;-139.48;100.00;61774.03;5044855;28;19922;-72
2021/06/15 10:14:12;;;;;;;;;;;;;;;-139.48;100.00;61774.03;5059617;28;20055;-72
2021/06/15 10:16:57;;;;;;;9.27;4.78;;;;;;;-139.48;100.00;61774.03;5059147;28;19919;-72
2021/06/15 10:19:41;;;;;;;13.98;5.38;;;;;;;-139.48;100.00;61774.03;5045106;28;20044;-71
2021/06/15 10:22:26;;;;;;;9.00;5.10;;;;;;;-139.48;100.00;61774.03;5058981;28;20573;-71
2021/06/15 10:25:11;;;;;;;11.77;4.63;;;;;;;-139.48;100.00;61774.03;5058746;28;20047;-71
2021/06/15 10:27:56;;;;;;;7.25;4.80;;;;;;;-139.48;100.00;61774.03;5058842;28;20051;-72
2021/06/15 10:30:42;;;;;;;6.18;4.88;;;;;;;-139.48;100.00;61774.03;5058882;28;20105;-72
2021/06/15 10:33:26;;;;;;;6.88;4.15;;;;;;;-139.48;100.00;61774.03;5058656;28;20050;-72
2021/06/15 10:36:11;;;;;;;7.30;4.57;;;;;;;-139.48;100.00;61774.03;5044393;28;20411;-69
2021/06/15 10:38:55;;;;;;;7.07;4.30;;;;;;;-139.48;100.00;61774.03;5055900;22;20052;-67
2021/06/15 10:41:39;;;;;;;4.90;4.35;;;;;;;-139.48;100.00;61774.03;5033599;28;20473;-66
2021/06/15 10:44:22;;;;;;;6.70;4.20;;;;;;;-139.48;100.00;61774.03;5018667;28;20103;-68
2021/06/15 10:47:11;;;;;;;5.72;4.22;;;;;;;-139.48;100.00;61774.03;5018846;28;20103;-67
2021/06/15 10:50:00;;;;;;;5.72;4.05;;;;;;;-139.48;100.00;61774.03;5018494;28;20107;-68
2021/06/15 10:52:58;;;;;;;5.53;4.18;;;;;;;-139.48;100.00;61774.03;5018656;28;20141;-67
2021/06/15 10:56:03;;;;;;;6.43;3.80;;;;;;;-139.48;100.00;61774.03;5033746;28;20466;-68
2021/06/15 10:58:57;;;;;;;8.60;4.35;;;;;;;-139.48;100.00;61774.03;5033278;28;20091;-68
2021/06/15 11:01:42;;;;;;;5.95;3.90;;;;;;;-139.48;100.00;61774.03;5032468;28;20135;-68
2021/06/15 11:04:36;;;;;;;5.82;4.07;;;;;;;-139.48;100.00;61774.03;5033536;28;20052;-68
2021/06/15 11:07:34;;;;;;;7.57;3.80;;;;;;;-139.48;100.00;61774.03;5033277;28;20068;-68
2021/06/15 11:10:47;;;;;;;6.47;4.25;;;;;;;-139.48;100.00;61774.03;5033105;28;20095;-67
2021/06/15 11:13:53;;;;;;;4.07;3.60;;;;;;;-139.48;100.00;61774.03;5032758;28;20414;-68
2021/06/15 11:16:46;;;;;;;8.00;4.10;;;;;;;-139.48;100.00;61774.03;5018162;28;20147;-68
2021/06/15 11:19:40;;;;;;;8.35;4.20;;;;;;;-139.48;100.00;61774.03;5032173;28;20094;-68
2021/06/15 11:22:28;;;;;;;9.30;4.25;;;;;;;-139.48;100.00;61774.03;5033377;28;20509;-68
2021/06/15 11:25:12;;;;;;;9.27;5.18;;;;;;;-139.48;100.00;61774.03;5032349;28;20103;-68
2021/06/15 11:27:56;;;;;;;7.63;4.50;;;;;;;-139.48;100.00;61774.03;5032158;28;20053;-67
2021/06/15 11:30:40;;;;;;;8.05;4.28;;;;;;;-139.48;100.00;61774.03;5018179;28;20048;-68
2021/06/15 11:33:27;;;;;;;5.43;3.92;;;;;;;-139.48;100.00;61774.03;5032005;28;20048;-68
2021/06/15 11:36:41;;;;;;;4.07;3.67;;;;;;;-139.48;100.00;61774.03;5032990;28;20067;-69
2021/06/15 11:39:30;;;;;;;4.50;3.10;;;;;;;-139.48;100.00;61774.03;5018149;28;20080;-68
2021/06/15 11:42:19;;;;;;;4.32;3.70;;;;;;;-139.48;100.00;61774.03;5031931;28;20107;-68
2021/06/15 11:45:09;;;;;;;4.35;3.80;;;;;;;-139.48;100.00;61774.03;5031996;28;20091;-68
2021/06/15 11:47:57;;;;;;;5.53;4.30;;;;;;;-139.48;100.00;61774.03;5032072;28;20502;-66
2021/06/15 11:50:45;;;;;;;5.00;4.05;;;;;;;-139.48;100.00;61774.03;5033182;28;20461;-68
2021/06/15 11:53:31;;;;;;;4.50;4.07;;;;;;;-139.48;100.00;61774.03;5031742;28;20052;-67
2021/06/15 11:56:15;;;;;;;3.95;3.60;;;;;;;-139.48;100.00;61774.03;5018020;28;20456;-66
2021/06/15 11:58:59;;;;;;;5.18;3.58;;;;;;;-139.48;100.00;61774.03;5031829;28;20048;-67
2021/06/15 12:01:43;;;;;;;4.95;3.47;;;;;;;-139.48;100.00;61774.03;5031916;28;20472;-66
2021/06/15 12:04:27;;;;;;;6.82;4.45;;;;;;;-139.48;100.00;61774.03;5031935;28;20413;-66
2021/06/15 12:07:16;;;;;;;6.45;3.58;;;;;;;-139.48;100.00;61774.03;5031948;28;20201;-66
2021/06/15 12:10:03;;;;;;;5.35;3.17;;;;;;;-139.48;100.00;61774.03;5003749;28;20518;-66
2021/06/15 12:12:58;;;;;;;3.33;3.00;;;;;;;-139.48;100.00;61774.03;5017758;28;20099;-66
2021/06/15 12:15:49;;;;;;;6.15;3.85;;;;;;;-139.48;100.00;61774.03;5032548;28;20099;-67
2021/06/15 12:18:48;;;;;;;3.83;3.38;;;;;;;-139.48;100.00;61774.03;5031846;28;20059;-65
2021/06/15 12:21:35;;;;;;;5.20;3.20;;;;;;;-139.48;100.00;61774.03;5031503;28;20406;-67
2021/06/15 12:24:19;;;;;;;5.80;3.45;;;;;;;-139.48;100.00;61774.03;5032779;28;20107;-67
2021/06/15 12:27:04;;;;;;;6.10;3.72;;;;;;;-139.48;100.00;61774.03;5036461;28;20053;-66
2021/06/15 12:29:48;;;;;;;5.65;3.88;;;;;;;-139.48;100.00;61774.03;5035967;28;20106;-65
2021/06/15 12:32:46;;;;;;;9.43;4.10;;;;;;;-139.48;100.00;61774.03;5021383;28;20111;-66
2021/06/15 12:35:29;;;;;;;4.00;3.42;;;;;;;-139.48;100.00;61774.03;5021556;28;20048;-66
2021/06/15 12:38:14;;;;;;;6.85;3.45;;;;;;;-139.48;100.00;61774.03;5034947;28;20434;-66
2021/06/15 12:40:59;;;;;;;4.05;3.47;;;;;;;-139.48;100.00;61774.03;5035140;28;20532;-67
2021/06/15 12:43:44;;;;;;;3.85;3.55;;;;;;;-139.48;100.00;61774.03;5034907;28;20052;-66